• Join FlightAware (Why Join?)
  • Login
  • US Flag 
12:56AM EDT


 

Airport Tracker/Info


-or-


 

Live Flight TrackerFlight Track Log ✈ SWA1718 ✈ 18-Apr-2013 ✈ KDEN - KMDW

Flight Track Log - Related Links

Times and Time Zones

All times are in EDT time to prevent confusion due to time zone crossing. See the SWA1718 flight status page for this flight to view local times or setup timezone preferences in your user account.

Time Position Orientation Groundspeed Altitude Reporting Facility
EDT Latitude Longitude Course Direction KTS MPH feet Rate Location/Type
08:46PM 39.8833 -104.5833 72° East 186 214 7,000  Level Denver TRACON
08:47PM 39.8833 -104.4833 90° East 260 299 9,500 1,860 Climbing Denver TRACON
08:48PM 39.8667 -104.3833 102° East 325 374 10,600 1,680 Climbing Denver TRACON
08:49PM 39.8733 -104.3525 74° East 325 374 11,500 3,600 Climbing Denver Center
08:50PM 39.8736 -104.2131 90° East 355 409 15,400 3,600 Climbing Denver Center
08:51PM 39.8725 -104.0800 91° East 369 425 19,000 3,180 Climbing Denver Center
08:52PM 39.8831 -103.7344 72° East  Level FlightAware Approximate
08:52PM 39.8708 -103.9336 91° East 383 441 22,000  Level Denver Center
08:53PM 39.8789 -103.7861 86° East 386 444 24,200 2,400 Climbing Denver Center
08:54PM 39.8931 -103.6478 82° East 382 440 27,000 2,340 Climbing Denver Center
08:55PM 39.9069 -103.5306 81° East 389 448 29,000 1,680 Climbing Denver Center
08:56PM 39.9256 -103.3594 82° East 405 466 30,500 1,200 Climbing Denver Center
08:57PM 39.9431 -103.2033 82° East 430 495 31,500 1,260 Climbing Denver Center
08:58PM 39.9617 -103.0428 81° East 443 510 33,100 1,320 Climbing Denver Center
08:59PM 39.9792 -102.8775 82° East 456 525 34,300 960 Climbing Denver Center
09:00PM 39.9969 -102.7106 82° East 460 529 35,200 960 Climbing Denver Center
09:01PM 40.0169 -102.5164 82° East 469 540 36,600 1,080 Climbing Denver Center
09:02PM 40.0372 -102.3269 82° East 472 543 37,700 900 Climbing Denver Center
09:03PM 40.0583 -102.1336 82° East 484 557 38,500 600 Climbing Denver Center
09:04PM 40.0747 -101.9672 83° East 483 556 39,000 240 Climbing Denver Center
09:05PM 40.0933 -101.7731 83° East 484 557 39,000  Level Denver Center
09:07PM 40.1103 -101.6061 82° East 483 556 39,000  Level Denver Center
09:08PM 40.1314 -101.3831 83° East 484 557 39,000  Level Denver Center
09:09PM 40.1469 -101.2161 83° East 485 558 39,000  Level Denver Center
09:10PM 40.1653 -101.0244 83° East 480 552 39,000  Level Denver Center
09:11PM 40.1800 -100.8578 83° East 483 556 39,000  Level Denver Center
09:12PM 40.1972 -100.6650 83° East 482 555 39,000  Level Denver Center
09:13PM 40.2058 -100.4969 86° East 487 560 39,000  Level Denver Center
09:14PM 40.2086 -100.3000 89° East 488 562 39,000  Level Denver Center
09:15PM 40.2106 -100.1283 89° East 494 568 39,000  Level Denver Center
09:16PM 40.2231 -99.9314 85° East 492 566 39,000  Level Denver Center
09:17PM 40.2442 -99.7803 80° East 499 574 39,000  Level Denver Center
09:18PM 40.2722 -99.5650 80° East 501 577 39,000  Level Denver Center
09:19PM 40.2956 -99.3883 80° East 496 571 39,000  Level Denver Center
09:20PM 40.3197 -99.2122 80° East 493 567 39,000  Level Denver Center
09:21PM 40.3425 -99.0342 80° East 495 570 39,000  Level Denver Center
09:22PM 40.3653 -98.8561 80° East 497 572 39,000  Level Denver Center
09:23PM 40.3869 -98.6781 81° East 498 573 39,000  Level Denver Center
09:24PM 40.4142 -98.4639 80° East 499 574 39,000  Level Minneapolis Center
09:25PM 40.4361 -98.2842 81° East 501 577 39,000  Level Minneapolis Center
09:26PM 40.4581 -98.1042 81° East 500 575 39,000  Level Minneapolis Center
09:27PM 40.4803 -97.9236 81° East 503 579 39,000  Level Minneapolis Center
09:28PM 40.5006 -97.7428 82° East 502 578 39,000  Level Minneapolis Center
09:29PM 40.5206 -97.5611 82° East 503 579 39,000  Level Minneapolis Center
09:30PM 40.5431 -97.3789 81° East 505 581 39,000  Level Minneapolis Center
09:31PM 40.5653 -97.1836 81° East 506 582 39,000  Level Minneapolis Center
09:32PM 40.5847 -97.0000 82° East 509 586 39,000  Level Minneapolis Center
09:33PM 40.6106 -96.7783 81° East 512 589 39,000  Level Minneapolis Center
09:34PM 40.6297 -96.5906 82° East 518 596 39,000  Level Minneapolis Center
09:35PM 40.6483 -96.4047 82° East 516 594 39,000  Level Minneapolis Center
09:36PM 40.6689 -96.2192 82° East 517 595 39,000  Level Minneapolis Center
09:37PM 40.6875 -96.0314 82° East 519 597 39,000  Level Minneapolis Center
09:38PM 40.7061 -95.8444 82° East 519 597 39,000  Level Minneapolis Center
09:40PM 40.7297 -95.6225 82° East 516 594 39,000  Level Minneapolis Center
09:41PM 40.7475 -95.4364 83° East 517 595 39,000  Level Minneapolis Center
09:42PM 40.7658 -95.2486 83° East 517 595 39,000  Level Minneapolis Center
09:43PM 40.7831 -95.0639 83° East 513 590 39,000  Level Minneapolis Center
09:44PM 40.7989 -94.8792 83° East 511 588 39,000  Level Minneapolis Center
09:45PM 40.8172 -94.6947 82° East 510 587 39,000  Level Minneapolis Center
09:46PM 40.8331 -94.4772 84° East 510 587 39,000  Level Minneapolis Center
09:47PM 40.8469 -94.2933 84° East 509 586 39,000  Level Minneapolis Center
09:48PM 40.8647 -94.1064 83° East 512 589 39,000  Level Minneapolis Center
09:49PM 40.8803 -93.9203 84° East 514 592 39,000  Level Minneapolis Center
09:50PM 40.8958 -93.7342 84° East 514 592 39,000  Level Minneapolis Center
09:51PM 40.9114 -93.5481 84° East 512 589 39,000  Level Minneapolis Center
09:52PM 40.9297 -93.3272 84° East 508 585 39,000  Level Minneapolis Center
09:53PM 40.9442 -93.1411 84° East 509 586 39,000 -540 Level Minneapolis Center
09:54PM 40.9592 -92.9539 84° East 511 588 38,000 -1,020 Descending Minneapolis Center
09:55PM 40.9728 -92.7636 85° East 517 595 37,000 -960 Descending Minneapolis Center
09:56PM 40.9869 -92.5750 84° East 517 595 36,100 -960 Descending Minneapolis Center
09:57PM 40.9997 -92.3853 85° East 517 595 35,100 -1,020 Descending Minneapolis Center
09:58PM 41.0153 -92.1586 85° East 517 595 34,000 -1,020 Descending Minneapolis Center
09:59PM 41.0269 -91.9717 85° East 513 590 33,000 -1,020 Descending Minneapolis Center
10:00PM 41.0400 -91.7844 85° East 513 590 32,000 -900 Descending Minneapolis Center
10:01PM 41.0536 -91.5597 85° East 500 575 31,000 -480 Descending Chicago Center
10:02PM 41.0644 -91.3789 85° East 494 568 31,000 -300 Level Chicago Center
10:03PM 41.0756 -91.1997 85° East 489 563 30,500 -1,320 Descending Chicago Center
10:04PM 41.0869 -91.0233 85° East 481 554 28,300 -2,220 Descending Chicago Center
10:05PM 41.0958 -90.8544 86° East 464 534 26,000 -2,100 Descending Chicago Center
10:06PM 41.1053 -90.6911 86° East 449 517 24,100 -1,560 Descending Chicago Center
10:08PM 41.1158 -90.4939 86° East 447 514 22,900 -1,140 Descending Chicago Center
10:09PM 41.1239 -90.3275 86° East 449 517 21,800 -1,860 Descending Chicago Center
10:10PM 41.1328 -90.1608 86° East 450 518 19,100 -1,980 Descending Chicago Center
10:11PM 41.1406 -89.9981 86° East 442 509 17,800 -1,140 Descending Chicago Center
10:12PM 41.1522 -89.8367 84° East 440 506 16,800 -1,020 Descending Chicago Center
10:13PM 41.1933 -89.6772 71° East 454 522 15,800 -840 Descending Chicago Center
10:14PM 41.2347 -89.5242 70° East 443 510 15,100 -660 Descending Chicago Center
10:15PM 41.2728 -89.3789 71° East 421 484 14,500 -840 Descending Chicago Center
10:16PM 41.3089 -89.2386 71° East 404 465 13,500 -1,080 Descending Chicago Center
10:17PM 41.3414 -89.1089 72° East 369 425 12,400 -1,080 Descending Chicago Center
10:18PM 41.3736 -88.9875 70° East 355 409 11,400 -1,260 Descending Chicago Center
10:19PM 41.4100 -88.8481 71° East 339 390 9,900 -1,500 Descending Chicago Center
10:20PM 41.4397 -88.7353 71° East 327 376 8,400 -1,380 Descending Chicago Center
10:21PM 41.4672 -88.6250 72° East 320 368 7,100 -1,200 Descending Chicago Center
10:22PM 41.4958 -88.5153 71° East 317 365 6,000 -960 Descending Chicago Center
10:23PM 41.5164 -88.4047 76° East 311 358 5,200 -540 Descending Chicago Center
10:24PM 41.5264 -88.2942 83° East 305 351 5,000 -120 Descending Chicago Center
10:25PM 41.5369 -88.1847 83° East 300 345 5,000  Level Chicago Center
10:26PM 41.5489 -88.0742 82° East 298 343 5,000  Level Chicago Center
10:27PM 41.5622 -87.9633 81° East 298 343 5,000 -300 Level Chicago Center
10:28PM 41.5783 -87.8531 79° East 300 345 4,400 -1,020 Descending Chicago Center
10:29PM 41.5908 -87.7228 83° East 298 343 3,000 -720 Descending Chicago Center
10:30PM 41.6203 -87.6378 65° Northeast 270 311 3,000 -300 Level Chicago Center
10:31PM 41.6636 -87.5853 42° Northeast 242 278 2,500 -300 Descending Chicago Center
10:32PM 41.6928 -87.6217 317° Northwest 177 204 2,500 -60 Level Chicago Center
10:33PM 41.7186 -87.6603 312° West 154 177 2,400 -420 Descending Chicago Center
10:34PM 41.7439 -87.6953 314° West 142 163 1,700 -780 Descending Chicago Center
10:35PM 41.7686 -87.7300 314° West 135 155 900 -840 Descending Chicago Center